Hauptseite
METAR-TAF:

METAR-TAF

Flughäfen :

Flugplatz Hamburg-Finkenwerder

Finkenwerder, Deutschland

Breite: 53-32N, Länge: 009-50E, Höhe: 5 m

Beobachtung

Neuester Wetterbericht von vor 33 Minuten, um 00:50 UTC
Wind 6 kt aus Nordost
Temperatur 13°C
Luftfeuchtigkeit 62%
Luftdruck 1025 hPa
Sichtweite 10 km oder mehr

METAR: EDHI 310050Z AUTO 05006KT 9999 // SCT066/// 13/06 Q1025

Zeit: 03:23 (01:23 UTC)


TAF: fehlend

Wetterbeobachtungen und Prognosen von mehr als 4000 Flughäfen (METAR und TAF Bericht).

Die verfügbaren Stationen werden durch gelbe und rote Markierungen auf der Karte dargestellt.

Führen Sie die Maus auf sie, um den Namen der Station zu sehen.

Darauf klicken, um die Beobachtung von Wetterbeobachtungen und Prognosen zu sehen.

Um die Karte zu ändern : klicken Sie auf den grünen Tasten mit einem schwarzen Kreuz Zum Vergrößern, auf den grünen Button mit einem Gedankenstrich zu verkleinern, oder auf die grünen Pfeile für benachbarte Karten.


METAR-TAF: